createdAt,value
2023-10-12T00:02:04.805Z,18.28
2023-10-12T00:04:33.022Z,18.29
2023-10-12T00:07:01.385Z,18.32
2023-10-12T00:09:28.145Z,18.32
2023-10-12T00:11:54.829Z,18.33
2023-10-12T00:14:21.488Z,18.32
2023-10-12T00:16:48.204Z,18.33
2023-10-12T00:19:14.834Z,18.31
2023-10-12T00:21:41.495Z,18.30
2023-10-12T00:24:09.893Z,18.27
2023-10-12T00:26:36.503Z,18.26
2023-10-12T00:29:03.167Z,18.23
2023-10-12T00:31:29.871Z,18.21
2023-10-12T00:33:56.517Z,18.17
2023-10-12T00:36:23.505Z,18.13
2023-10-12T00:38:50.445Z,18.13
2023-10-12T00:41:18.497Z,18.10
2023-10-12T00:43:53.018Z,18.06
2023-10-12T00:46:19.705Z,18.04
2023-10-12T00:48:46.368Z,18.02
2023-10-12T00:51:13.299Z,17.99
2023-10-12T00:53:39.838Z,17.98
2023-10-12T00:56:06.544Z,17.97
2023-10-12T00:58:34.614Z,17.96
2023-10-12T01:01:01.240Z,17.97
2023-10-12T01:03:27.852Z,17.94
2023-10-12T01:05:55.216Z,17.90
2023-10-12T01:08:21.778Z,17.89
2023-10-12T01:10:48.349Z,17.88
2023-10-12T01:13:15.064Z,17.83
2023-10-12T01:15:43.033Z,17.78
2023-10-12T01:18:09.603Z,17.73
2023-10-12T01:20:36.434Z,17.69
2023-10-12T01:23:04.484Z,17.62
2023-10-12T01:25:31.121Z,17.58
2023-10-12T01:27:58.099Z,17.53
2023-10-12T01:30:25.060Z,17.46
2023-10-12T01:32:51.822Z,17.41
2023-10-12T01:35:19.161Z,17.39
2023-10-12T01:37:45.695Z,17.35
2023-10-12T01:40:13.962Z,17.28
2023-10-12T01:42:40.746Z,17.25
2023-10-12T01:45:09.212Z,17.19
2023-10-12T01:47:35.891Z,17.16
2023-10-12T01:50:02.633Z,17.10
2023-10-12T01:54:55.904Z,17.05
2023-10-12T01:57:22.770Z,17.06
2023-10-12T01:59:49.408Z,17.04
2023-10-12T02:02:15.959Z,17.02
2023-10-12T02:04:42.833Z,16.99
2023-10-12T02:07:09.446Z,16.99
2023-10-12T02:09:36.082Z,16.95
2023-10-12T02:12:04.806Z,16.92
2023-10-12T02:14:31.445Z,16.91
2023-10-12T02:16:58.174Z,16.90
2023-10-12T02:19:24.956Z,16.88
2023-10-12T02:21:51.552Z,16.85
2023-10-12T02:24:18.360Z,16.85
2023-10-12T02:26:45.356Z,16.85
2023-10-12T02:29:13.285Z,16.83
2023-10-12T02:31:41.564Z,16.83
2023-10-12T02:34:08.720Z,16.80
2023-10-12T02:36:35.391Z,16.76
2023-10-12T02:39:01.995Z,16.76
2023-10-12T02:41:28.721Z,16.72
2023-10-12T02:43:55.463Z,16.70
2023-10-12T02:46:23.522Z,16.67
2023-10-12T02:48:50.566Z,16.65
2023-10-12T02:51:17.255Z,16.62
2023-10-12T02:53:43.849Z,16.62
2023-10-12T02:56:10.667Z,16.61
2023-10-12T02:58:37.288Z,16.61
2023-10-12T03:01:04.107Z,16.60
2023-10-12T03:03:32.612Z,16.59
2023-10-12T03:05:59.580Z,16.58
2023-10-12T03:08:26.823Z,16.56
2023-10-12T03:10:53.721Z,16.56
2023-10-12T03:13:20.334Z,16.57
2023-10-12T03:15:46.970Z,16.58
2023-10-12T03:18:13.903Z,16.57
2023-10-12T03:20:41.813Z,16.52
2023-10-12T03:23:08.395Z,16.48
2023-10-12T03:25:35.980Z,16.47
2023-10-12T03:28:02.740Z,16.45
2023-10-12T03:30:29.277Z,16.41
2023-10-12T03:32:56.018Z,16.40
2023-10-12T03:35:22.617Z,16.40
2023-10-12T03:37:50.477Z,16.40
2023-10-12T03:40:17.306Z,16.36
2023-10-12T03:42:44.134Z,16.32
2023-10-12T03:45:11.014Z,16.33
2023-10-12T03:47:37.961Z,16.32
2023-10-12T03:50:05.310Z,16.32
2023-10-12T03:52:31.956Z,16.31
2023-10-12T03:55:00.074Z,16.31
2023-10-12T03:57:28.888Z,16.28
2023-10-12T03:59:55.533Z,16.29
2023-10-12T04:02:22.274Z,16.31
2023-10-12T04:04:48.948Z,16.30
2023-10-12T04:07:15.534Z,16.30
2023-10-12T04:09:42.347Z,16.28
2023-10-12T04:12:11.480Z,16.29
2023-10-12T04:14:38.005Z,16.28
2023-10-12T04:17:04.759Z,16.30
2023-10-12T04:19:31.387Z,16.28
2023-10-12T04:21:58.067Z,16.29
2023-10-12T04:24:24.833Z,16.28
2023-10-12T04:26:51.494Z,16.27
2023-10-12T04:29:19.418Z,16.26
2023-10-12T04:31:46.055Z,16.25
2023-10-12T04:34:13.178Z,16.25
2023-10-12T04:36:39.848Z,16.22
2023-10-12T04:39:06.538Z,16.20
2023-10-12T04:41:33.190Z,16.21
2023-10-12T04:43:59.866Z,16.22
2023-10-12T04:46:28.052Z,16.22
2023-10-12T04:48:55.061Z,16.25
2023-10-12T04:51:21.630Z,16.24
2023-10-12T04:53:48.372Z,16.25
2023-10-12T04:56:15.013Z,16.25
2023-10-12T04:58:41.621Z,16.25
2023-10-12T05:01:08.337Z,16.26
2023-10-12T05:03:36.570Z,16.23
2023-10-12T05:06:03.395Z,16.23
2023-10-12T05:08:30.111Z,16.24
2023-10-12T05:10:56.762Z,16.25
2023-10-12T05:13:24.076Z,16.26
2023-10-12T05:15:51.649Z,16.26
2023-10-12T05:18:19.358Z,16.24
2023-10-12T05:20:47.267Z,16.25
2023-10-12T05:23:13.948Z,16.23
2023-10-12T05:25:41.372Z,16.22
2023-10-12T05:28:08.077Z,16.21
2023-10-12T05:30:34.795Z,16.21
2023-10-12T05:33:01.539Z,16.21
2023-10-12T05:35:28.378Z,16.20
2023-10-12T05:37:56.357Z,16.21
2023-10-12T05:40:23.058Z,16.22
2023-10-12T05:42:49.716Z,16.22
2023-10-12T05:45:16.369Z,16.23
2023-10-12T05:47:43.129Z,16.22
2023-10-12T05:50:10.727Z,16.22
2023-10-12T05:52:37.397Z,16.23
2023-10-12T05:55:06.268Z,16.22
2023-10-12T05:57:32.914Z,16.21
2023-10-12T05:59:59.610Z,16.21
2023-10-12T06:02:26.766Z,16.18
2023-10-12T06:04:53.703Z,16.18
2023-10-12T06:07:20.474Z,16.18
2023-10-12T06:09:47.271Z,16.17
2023-10-12T06:12:15.266Z,16.18
2023-10-12T06:14:41.982Z,16.18
2023-10-12T06:17:08.894Z,16.19
2023-10-12T06:19:35.567Z,16.18
2023-10-12T06:22:03.352Z,16.19
2023-10-12T06:24:30.098Z,16.18
2023-10-12T06:26:56.693Z,16.17
2023-10-12T06:29:24.739Z,16.17
2023-10-12T06:31:51.541Z,16.16
2023-10-12T06:34:18.462Z,16.17
2023-10-12T06:36:45.409Z,16.16
2023-10-12T06:39:13.702Z,16.17
2023-10-12T06:41:40.272Z,16.19
2023-10-12T06:44:06.913Z,16.18
2023-10-12T06:46:35.232Z,16.18
2023-10-12T06:49:02.677Z,16.18
2023-10-12T06:51:29.356Z,16.20
2023-10-12T06:53:56.090Z,16.19
2023-10-12T06:56:22.723Z,16.19
2023-10-12T06:58:50.784Z,16.18
2023-10-12T07:01:17.589Z,16.18
2023-10-12T07:03:45.837Z,16.19
2023-10-12T07:06:12.514Z,16.18
2023-10-12T07:08:39.109Z,16.18
2023-10-12T07:11:05.685Z,16.19
2023-10-12T07:13:32.367Z,16.20
2023-10-12T07:15:59.205Z,16.21
2023-10-12T07:18:26.030Z,16.21
2023-10-12T07:20:54.005Z,16.22
2023-10-12T07:23:20.629Z,16.26
2023-10-12T07:25:48.504Z,16.28
2023-10-12T07:28:15.864Z,16.28
2023-10-12T07:30:42.565Z,16.29
2023-10-12T07:33:09.185Z,16.30
2023-10-12T07:35:37.435Z,16.31
2023-10-12T07:38:06.456Z,16.29
2023-10-12T07:40:34.945Z,16.29
2023-10-12T07:43:01.790Z,16.33
2023-10-12T07:45:28.515Z,16.35
2023-10-12T07:47:55.068Z,16.36
2023-10-12T07:50:22.070Z,16.37
2023-10-12T07:52:49.258Z,16.38
2023-10-12T07:55:17.259Z,16.39
2023-10-12T07:57:44.266Z,16.42
2023-10-12T08:00:12.101Z,16.43
2023-10-12T08:02:40.205Z,16.47
2023-10-12T08:05:07.507Z,16.50
2023-10-12T08:07:34.228Z,16.53
2023-10-12T08:10:02.139Z,16.57
2023-10-12T08:12:31.117Z,16.57
2023-10-12T08:15:01.992Z,16.59
2023-10-12T08:17:28.552Z,16.61
2023-10-12T08:19:55.172Z,16.64
2023-10-12T08:22:21.931Z,16.68
2023-10-12T08:24:48.537Z,16.68
2023-10-12T08:27:15.193Z,16.71
2023-10-12T08:29:41.897Z,16.72
2023-10-12T08:32:09.787Z,16.75
2023-10-12T08:34:37.186Z,16.78
2023-10-12T08:37:05.942Z,16.79
2023-10-12T08:39:45.847Z,16.79
2023-10-12T08:42:14.470Z,16.83
2023-10-12T08:44:41.367Z,16.88
2023-10-12T08:47:09.430Z,16.96
2023-10-12T08:49:36.336Z,17.02
2023-10-12T08:52:06.438Z,17.07
2023-10-12T08:54:35.805Z,17.13
2023-10-12T08:57:03.780Z,17.18
2023-10-12T08:59:33.267Z,17.21
2023-10-12T09:02:02.131Z,17.25
2023-10-12T09:04:31.228Z,17.27
2023-10-12T09:06:59.196Z,17.30
2023-10-12T09:09:26.193Z,17.30
2023-10-12T09:11:52.828Z,17.33
2023-10-12T09:14:19.564Z,17.35
2023-10-12T09:16:53.078Z,17.36
2023-10-12T09:19:20.112Z,17.36
2023-10-12T09:21:51.510Z,17.40
2023-10-12T09:24:21.308Z,17.46
2023-10-12T09:26:48.190Z,17.51
2023-10-12T09:29:15.169Z,17.57
2023-10-12T09:31:42.187Z,17.61
2023-10-12T09:34:10.323Z,17.63
2023-10-12T09:36:37.097Z,17.67
2023-10-12T09:39:04.564Z,17.69
2023-10-12T09:41:39.409Z,17.74
2023-10-12T09:44:07.578Z,17.80
2023-10-12T09:46:34.926Z,17.85
2023-10-12T09:49:02.056Z,17.86
2023-10-12T09:51:31.034Z,17.89
2023-10-12T09:54:00.687Z,17.91
2023-10-12T09:58:56.288Z,17.95
2023-10-12T10:01:23.595Z,17.93
2023-10-12T10:03:51.286Z,17.92
2023-10-12T10:06:23.103Z,17.94
2023-10-12T10:08:51.629Z,17.94
2023-10-12T10:11:18.526Z,17.96
2023-10-12T10:13:50.283Z,17.96
2023-10-12T10:16:18.216Z,17.95
2023-10-12T10:18:50.889Z,17.92
2023-10-12T10:21:17.636Z,17.90
2023-10-12T10:23:44.177Z,17.88
2023-10-12T10:26:14.981Z,17.87
2023-10-12T10:28:41.714Z,17.85
2023-10-12T10:31:08.982Z,17.82
2023-10-12T10:33:38.025Z,17.81
2023-10-12T10:36:06.406Z,17.79
2023-10-12T10:38:33.035Z,17.80
2023-10-12T10:41:02.813Z,17.83
2023-10-12T10:43:29.530Z,17.83
2023-10-12T10:45:56.175Z,17.87
2023-10-12T10:48:57.741Z,17.88
2023-10-12T10:50:56.152Z,17.92
2023-10-12T10:53:24.000Z,17.94
2023-10-12T10:55:50.663Z,17.97
2023-10-12T10:58:17.906Z,18.01
2023-10-12T11:00:44.604Z,18.03
2023-10-12T11:03:11.493Z,18.04
2023-10-12T11:05:39.268Z,18.04
2023-10-12T11:08:07.467Z,18.05
2023-10-12T11:10:34.113Z,18.05
2023-10-12T11:13:00.875Z,18.05
2023-10-12T11:15:27.521Z,18.05
2023-10-12T11:17:54.532Z,18.07
2023-10-12T11:20:29.108Z,18.09
2023-10-12T11:22:56.303Z,18.12
2023-10-12T11:25:24.359Z,18.16
2023-10-12T11:27:50.940Z,18.20
2023-10-12T11:30:30.044Z,18.20
2023-10-12T11:32:58.735Z,18.22
2023-10-12T11:35:35.199Z,18.19
2023-10-12T11:38:02.540Z,18.21
2023-10-12T11:40:29.978Z,18.21
2023-10-12T11:42:57.761Z,18.21
2023-10-12T11:45:24.512Z,18.17
2023-10-12T11:47:51.128Z,18.14
2023-10-12T11:50:30.046Z,18.12
2023-10-12T11:52:58.031Z,18.11
2023-10-12T11:55:24.836Z,18.13
2023-10-12T11:57:52.981Z,18.15
2023-10-12T12:00:19.647Z,18.18
2023-10-12T12:02:46.779Z,18.17
2023-10-12T12:05:13.639Z,18.16
2023-10-12T12:07:40.324Z,18.19
2023-10-12T12:10:09.180Z,18.20
2023-10-12T12:12:35.935Z,18.24
2023-10-12T12:15:02.506Z,18.23
2023-10-12T12:17:29.298Z,18.27
2023-10-12T12:19:56.079Z,18.28
2023-10-12T12:22:22.775Z,18.30
2023-10-12T12:24:49.540Z,18.33
2023-10-12T12:27:17.611Z,18.33
2023-10-12T12:29:59.518Z,18.32
2023-10-12T12:32:31.149Z,18.27
2023-10-12T12:34:57.761Z,18.24
2023-10-12T12:37:24.374Z,18.21
2023-10-12T12:39:52.710Z,18.17
2023-10-12T12:42:20.681Z,18.15
2023-10-12T12:44:47.224Z,18.13
2023-10-12T12:47:14.006Z,18.13
2023-10-12T12:49:40.785Z,18.16
2023-10-12T12:52:07.456Z,18.15
2023-10-12T12:54:34.230Z,18.16
2023-10-12T12:57:00.795Z,18.22
2023-10-12T12:59:28.750Z,18.22
2023-10-12T13:01:55.660Z,18.22
2023-10-12T13:04:22.658Z,18.25
2023-10-12T13:07:00.152Z,18.25
2023-10-12T13:09:31.117Z,18.27
2023-10-12T13:11:57.752Z,18.31
2023-10-12T13:14:24.781Z,18.33
2023-10-12T13:17:08.947Z,18.34
2023-10-12T13:19:35.577Z,18.36
2023-10-12T13:22:02.151Z,18.34
2023-10-12T13:24:28.837Z,18.34
2023-10-12T13:26:55.418Z,18.36
2023-10-12T13:29:22.177Z,18.36
2023-10-12T13:31:49.037Z,18.38
2023-10-12T13:34:17.026Z,18.41
2023-10-12T13:36:43.707Z,18.44
2023-10-12T13:39:10.816Z,18.47
2023-10-12T13:41:37.585Z,18.52
2023-10-12T13:44:04.609Z,18.54
2023-10-12T13:46:31.501Z,18.56
2023-10-12T13:48:58.176Z,18.56
2023-10-12T13:51:30.900Z,18.54
2023-10-12T13:53:57.867Z,18.53
2023-10-12T13:56:24.446Z,18.48
2023-10-12T13:58:51.251Z,18.47
2023-10-12T14:01:18.096Z,18.43
2023-10-12T14:03:45.646Z,18.41
2023-10-12T14:06:12.669Z,18.38
2023-10-12T14:08:40.879Z,18.37
2023-10-12T14:11:07.716Z,18.36
2023-10-12T14:13:34.449Z,18.36
2023-10-12T14:16:01.671Z,18.38
2023-10-12T14:18:28.753Z,18.36
2023-10-12T14:20:56.678Z,18.31
2023-10-12T14:23:24.189Z,18.27
2023-10-12T14:25:52.533Z,18.26
2023-10-12T14:28:19.232Z,18.23
2023-10-12T14:30:45.978Z,18.24
2023-10-12T14:33:12.689Z,18.23
2023-10-12T14:35:39.486Z,18.28
2023-10-12T14:38:06.344Z,18.26
2023-10-12T14:40:33.716Z,18.29
2023-10-12T14:43:03.001Z,18.33
2023-10-12T14:45:29.685Z,18.34
2023-10-12T14:47:56.493Z,18.33
2023-10-12T14:50:23.461Z,18.30
2023-10-12T14:52:50.184Z,18.29
2023-10-12T14:55:16.954Z,18.29
2023-10-12T14:57:43.528Z,18.26
2023-10-12T15:00:13.099Z,18.19
2023-10-12T15:02:39.832Z,18.12
2023-10-12T15:05:07.315Z,18.08
2023-10-12T15:07:33.999Z,18.05
2023-10-12T15:10:00.872Z,17.97
2023-10-12T15:12:27.495Z,17.93
2023-10-12T15:14:54.226Z,17.87
2023-10-12T15:17:22.328Z,17.83
2023-10-12T15:19:48.952Z,17.77
2023-10-12T15:22:15.658Z,17.74
2023-10-12T15:24:42.314Z,17.71
2023-10-12T15:27:08.954Z,17.68
2023-10-12T15:29:35.892Z,17.65
2023-10-12T15:32:02.709Z,17.63
2023-10-12T15:34:31.278Z,17.61
2023-10-12T15:36:57.980Z,17.57
2023-10-12T15:39:28.025Z,17.53
2023-10-12T15:41:54.610Z,17.51
2023-10-12T15:44:21.210Z,17.48
2023-10-12T15:46:49.699Z,17.47
2023-10-12T15:49:16.505Z,17.46
2023-10-12T15:51:44.702Z,17.45
2023-10-12T15:54:12.351Z,17.44
2023-10-12T15:56:39.049Z,17.43
2023-10-12T15:59:05.936Z,17.41
2023-10-12T16:01:32.901Z,17.41
2023-10-12T16:03:59.747Z,17.41
2023-10-12T16:06:26.542Z,17.41
2023-10-12T16:08:54.589Z,17.39
2023-10-12T16:11:21.083Z,17.40
2023-10-12T16:13:47.927Z,17.38
2023-10-12T16:16:15.906Z,17.38
2023-10-12T16:18:43.147Z,17.38
2023-10-12T16:21:10.821Z,17.36
2023-10-12T16:23:37.798Z,17.36
2023-10-12T16:26:09.489Z,17.36
2023-10-12T16:31:01.694Z,17.32
2023-10-12T16:33:28.423Z,17.30
2023-10-12T16:35:55.064Z,17.31
2023-10-12T16:38:21.794Z,17.31
2023-10-12T16:40:48.439Z,17.30
2023-10-12T16:43:16.577Z,17.30
2023-10-12T16:45:43.339Z,17.29
2023-10-12T16:48:10.216Z,17.29
2023-10-12T16:50:40.065Z,17.30
2023-10-12T16:53:06.856Z,17.28
2023-10-12T16:55:33.554Z,17.27
2023-10-12T16:58:00.341Z,17.27
2023-10-12T17:00:28.451Z,17.25
2023-10-12T17:02:55.075Z,17.26
2023-10-12T17:05:21.860Z,17.26
2023-10-12T17:07:48.561Z,17.26
2023-10-12T17:10:20.223Z,17.26
2023-10-12T17:12:47.043Z,17.26
2023-10-12T17:15:13.724Z,17.26
2023-10-12T17:17:41.750Z,17.27
2023-10-12T17:20:09.406Z,17.28
2023-10-12T17:25:01.765Z,17.27
2023-10-12T17:27:28.523Z,17.28
2023-10-12T17:29:55.120Z,17.28
2023-10-12T17:32:21.833Z,17.28
2023-10-12T17:34:49.948Z,17.28
2023-10-12T17:37:16.586Z,17.27
2023-10-12T17:39:43.357Z,17.26
2023-10-12T17:42:09.958Z,17.24
2023-10-12T17:44:36.486Z,17.21
2023-10-12T17:47:03.300Z,17.19
2023-10-12T17:49:29.910Z,17.18
2023-10-12T17:51:58.116Z,17.13
2023-10-12T17:54:24.806Z,17.10
2023-10-12T17:56:51.420Z,17.06
2023-10-12T17:59:18.041Z,17.04
2023-10-12T18:01:45.181Z,17.03
2023-10-12T18:04:12.112Z,17.04
2023-10-12T18:06:38.777Z,17.03
2023-10-12T18:09:06.799Z,17.04
2023-10-12T18:11:33.404Z,17.07
2023-10-12T18:14:00.107Z,17.08
2023-10-12T18:16:27.041Z,17.10
2023-10-12T18:18:53.760Z,17.12
2023-10-12T18:21:20.626Z,17.13
2023-10-12T18:23:47.497Z,17.13
2023-10-12T18:26:15.818Z,17.15
2023-10-12T18:28:42.518Z,17.14
2023-10-12T18:31:11.045Z,17.16
2023-10-12T18:33:39.120Z,17.17
2023-10-12T18:36:08.374Z,17.19
2023-10-12T18:41:05.411Z,17.18
2023-10-12T18:43:33.774Z,17.19
2023-10-12T18:46:00.790Z,17.18
2023-10-12T18:48:27.770Z,17.21
2023-10-12T18:50:58.672Z,17.22
2023-10-12T18:53:25.900Z,17.20
2023-10-12T18:55:59.153Z,17.22
2023-10-12T18:58:25.875Z,17.21
2023-10-12T19:00:55.760Z,17.22
2023-10-12T19:03:23.022Z,17.25
2023-10-12T19:05:49.708Z,17.24
2023-10-12T19:08:16.315Z,17.25
2023-10-12T19:10:42.887Z,17.27
2023-10-12T19:13:23.215Z,17.26
2023-10-12T19:15:51.291Z,17.28
2023-10-12T19:18:19.766Z,17.28
2023-10-12T19:20:47.100Z,17.28
2023-10-12T19:23:14.009Z,17.29
2023-10-12T19:25:40.972Z,17.31
2023-10-12T19:28:07.799Z,17.31
2023-10-12T19:30:34.556Z,17.32
2023-10-12T19:33:01.508Z,17.32
2023-10-12T19:35:29.612Z,17.33
2023-10-12T19:37:56.330Z,17.32
2023-10-12T19:40:23.110Z,17.32
2023-10-12T19:42:50.161Z,17.30
2023-10-12T19:45:16.910Z,17.31
2023-10-12T19:47:43.655Z,17.32
2023-10-12T19:50:10.376Z,17.30
2023-10-12T19:52:38.503Z,17.31
2023-10-12T19:55:05.928Z,17.28
2023-10-12T19:57:32.731Z,17.30
2023-10-12T20:00:00.059Z,17.30
2023-10-12T20:02:26.777Z,17.30
2023-10-12T20:04:53.482Z,17.31
2023-10-12T20:07:20.169Z,17.32
2023-10-12T20:09:48.285Z,17.31
2023-10-12T20:12:14.886Z,17.32
2023-10-12T20:14:41.400Z,17.33
2023-10-12T20:17:08.137Z,17.33
2023-10-12T20:19:34.885Z,17.33
2023-10-12T20:22:01.520Z,17.32
2023-10-12T20:24:28.134Z,17.33
2023-10-12T20:26:56.017Z,17.31
2023-10-12T20:29:22.989Z,17.30
2023-10-12T20:31:49.868Z,17.29
2023-10-12T20:34:16.502Z,17.29
2023-10-12T20:36:43.066Z,17.29
2023-10-12T20:39:10.034Z,17.30
2023-10-12T20:41:37.194Z,17.30
2023-10-12T20:44:05.804Z,17.31
2023-10-12T20:46:36.168Z,17.32
2023-10-12T20:49:01.398Z,17.31
2023-10-12T20:51:28.091Z,17.32
2023-10-12T20:53:54.789Z,17.30
2023-10-12T20:56:21.337Z,17.28
2023-10-12T20:58:48.062Z,17.26
2023-10-12T21:01:16.058Z,17.25
2023-10-12T21:03:42.686Z,17.24
2023-10-12T21:06:09.793Z,17.23
2023-10-12T21:11:01.568Z,17.23
2023-10-12T21:13:28.298Z,17.26
2023-10-12T21:15:55.113Z,17.26
2023-10-12T21:18:23.604Z,17.29
2023-10-12T21:20:53.266Z,17.30
2023-10-12T21:23:19.928Z,17.30
2023-10-12T21:25:46.598Z,17.32
2023-10-12T21:28:13.546Z,17.32
2023-10-12T21:30:40.167Z,17.32
2023-10-12T21:33:07.190Z,17.33
2023-10-12T21:35:35.209Z,17.34
2023-10-12T21:38:01.905Z,17.36
2023-10-12T21:40:28.497Z,17.36
2023-10-12T21:42:55.184Z,17.36
2023-10-12T21:45:21.945Z,17.36
2023-10-12T21:47:48.828Z,17.33
2023-10-12T21:50:15.683Z,17.33
2023-10-12T21:52:43.632Z,17.32
2023-10-12T21:55:10.233Z,17.31
2023-10-12T21:57:36.974Z,17.33
2023-10-12T22:00:04.068Z,17.34
2023-10-12T22:02:30.771Z,17.33
2023-10-12T22:04:57.773Z,17.35
2023-10-12T22:07:24.520Z,17.35
2023-10-12T22:09:52.545Z,17.35
2023-10-12T22:12:19.106Z,17.34
2023-10-12T22:14:45.950Z,17.35
2023-10-12T22:17:12.955Z,17.36
2023-10-12T22:19:39.736Z,17.36
2023-10-12T22:22:06.501Z,17.35
2023-10-12T22:24:33.317Z,17.35
2023-10-12T22:27:01.540Z,17.33
2023-10-12T22:29:28.176Z,17.35
2023-10-12T22:31:55.332Z,17.36
2023-10-12T22:34:22.068Z,17.36
2023-10-12T22:36:48.602Z,17.35
2023-10-12T22:39:15.242Z,17.37
2023-10-12T22:41:42.485Z,17.36
2023-10-12T22:44:10.365Z,17.34
2023-10-12T22:46:37.248Z,17.34
2023-10-12T22:49:04.176Z,17.34
2023-10-12T22:51:30.769Z,17.34
2023-10-12T22:53:57.396Z,17.33
2023-10-12T22:56:24.096Z,17.33
2023-10-12T22:58:50.611Z,17.32
2023-10-12T23:01:18.542Z,17.33
2023-10-12T23:03:45.455Z,17.34
2023-10-12T23:06:12.070Z,17.33
2023-10-12T23:08:38.686Z,17.32
2023-10-12T23:11:05.435Z,17.33
2023-10-12T23:13:32.063Z,17.33
2023-10-12T23:15:58.921Z,17.34
2023-10-12T23:18:27.094Z,17.34
2023-10-12T23:20:53.604Z,17.34
2023-10-12T23:23:20.146Z,17.33
2023-10-12T23:25:47.231Z,17.35
2023-10-12T23:28:14.891Z,17.35
2023-10-12T23:30:41.789Z,17.35
2023-10-12T23:33:08.421Z,17.35
2023-10-12T23:35:36.376Z,17.37
2023-10-12T23:38:03.587Z,17.35
2023-10-12T23:40:30.323Z,17.37
2023-10-12T23:42:56.911Z,17.36
2023-10-12T23:45:23.500Z,17.36
2023-10-12T23:47:50.153Z,17.36
2023-10-12T23:50:16.953Z,17.38
2023-10-12T23:52:44.931Z,17.39
2023-10-12T23:55:11.724Z,17.40
2023-10-12T23:57:38.307Z,17.41
